createdAt,value
2017-08-31T00:00:56.406Z,19.70
2017-08-31T00:03:23.950Z,19.70
2017-08-31T00:05:51.756Z,19.60
2017-08-31T00:08:19.260Z,19.60
2017-08-31T00:10:46.758Z,19.60
2017-08-31T00:13:14.540Z,19.50
2017-08-31T00:15:42.039Z,19.60
2017-08-31T00:18:09.547Z,19.60
2017-08-31T00:20:37.459Z,19.70
2017-08-31T00:23:04.976Z,19.60
2017-08-31T00:25:32.485Z,19.60
2017-08-31T00:28:00.063Z,19.60
2017-08-31T00:30:27.580Z,19.60
2017-08-31T00:32:55.099Z,19.50
2017-08-31T00:35:22.639Z,19.60
2017-08-31T00:37:50.151Z,19.50
2017-08-31T00:40:17.647Z,19.50
2017-08-31T00:42:45.422Z,19.40
2017-08-31T00:45:12.922Z,19.40
2017-08-31T00:47:40.427Z,19.40
2017-08-31T00:50:08.222Z,19.50
2017-08-31T00:52:35.723Z,19.60
2017-08-31T00:55:03.223Z,19.50
2017-08-31T00:57:30.798Z,19.50
2017-08-31T00:59:58.299Z,19.50
2017-08-31T01:02:25.798Z,19.60
2017-08-31T01:04:53.510Z,19.60
2017-08-31T01:07:21.032Z,19.60
2017-08-31T01:09:48.842Z,19.60
2017-08-31T01:12:16.362Z,19.80
2017-08-31T01:14:43.867Z,19.80
2017-08-31T01:17:12.627Z,19.80
2017-08-31T01:19:40.130Z,19.80
2017-08-31T01:22:07.638Z,19.90
2017-08-31T01:24:35.433Z,20.00
2017-08-31T01:27:02.947Z,19.80
2017-08-31T01:29:30.468Z,19.80
2017-08-31T01:31:58.013Z,19.70
2017-08-31T01:34:25.547Z,19.70
2017-08-31T01:36:53.054Z,19.70
2017-08-31T01:39:20.610Z,19.60
2017-08-31T01:41:48.123Z,19.70
2017-08-31T01:44:15.631Z,19.70
2017-08-31T01:46:43.162Z,19.80
2017-08-31T01:49:10.679Z,19.80
2017-08-31T01:51:38.187Z,19.80
2017-08-31T01:54:06.806Z,19.70
2017-08-31T01:56:34.311Z,19.70
2017-08-31T01:59:01.811Z,19.60
2017-08-31T02:01:29.371Z,19.70
2017-08-31T02:03:56.880Z,19.70
2017-08-31T02:06:24.388Z,19.70
2017-08-31T02:08:52.272Z,19.70
2017-08-31T02:11:19.789Z,19.70
2017-08-31T02:13:47.299Z,19.70
2017-08-31T02:16:15.087Z,19.50
2017-08-31T02:18:42.590Z,19.50
2017-08-31T02:21:10.102Z,19.50
2017-08-31T02:23:37.631Z,19.40
2017-08-31T02:26:05.141Z,19.40
2017-08-31T02:28:32.701Z,19.40
2017-08-31T02:31:00.208Z,19.30
2017-08-31T02:33:27.723Z,19.30
2017-08-31T02:35:55.283Z,19.30
2017-08-31T02:38:23.559Z,19.10
2017-08-31T02:40:51.076Z,19.10
2017-08-31T02:43:18.892Z,19.00
2017-08-31T02:45:47.159Z,18.90
2017-08-31T02:48:14.662Z,18.90
2017-08-31T02:50:42.459Z,18.90
2017-08-31T02:53:09.981Z,18.80
2017-08-31T02:55:37.481Z,18.80
2017-08-31T02:58:05.060Z,18.80
2017-08-31T03:00:32.583Z,18.90
2017-08-31T03:03:00.103Z,18.90
2017-08-31T03:05:27.659Z,18.90
2017-08-31T03:07:55.164Z,18.90
2017-08-31T03:10:22.671Z,19.00
2017-08-31T03:12:50.471Z,18.90
2017-08-31T03:15:17.971Z,19.10
2017-08-31T03:17:45.488Z,19.10
2017-08-31T03:20:13.375Z,19.20
2017-08-31T03:22:40.879Z,19.20
2017-08-31T03:25:08.379Z,19.30
2017-08-31T03:27:36.291Z,19.30
2017-08-31T03:30:03.919Z,19.10
2017-08-31T03:32:31.572Z,19.00
2017-08-31T03:34:59.440Z,18.90
2017-08-31T03:37:26.970Z,18.80
2017-08-31T03:39:54.483Z,18.70
2017-08-31T03:42:22.176Z,18.60
2017-08-31T03:44:49.854Z,18.60
2017-08-31T03:47:17.471Z,18.70
2017-08-31T03:49:45.256Z,18.50
2017-08-31T03:52:12.895Z,18.50
2017-08-31T03:54:40.426Z,18.50
2017-08-31T03:57:07.971Z,18.50
2017-08-31T03:59:35.480Z,18.40
2017-08-31T04:02:02.986Z,18.40
2017-08-31T04:04:30.561Z,18.40
2017-08-31T04:06:58.078Z,18.50
2017-08-31T04:09:25.590Z,18.60
2017-08-31T04:11:53.370Z,18.70
2017-08-31T04:14:20.881Z,18.80
2017-08-31T04:16:48.392Z,18.80
2017-08-31T04:19:16.218Z,18.80
2017-08-31T04:21:43.727Z,18.90
2017-08-31T04:24:11.362Z,18.90
2017-08-31T04:26:39.179Z,19.00
2017-08-31T04:29:06.687Z,19.10
2017-08-31T04:31:34.195Z,19.10
2017-08-31T04:34:01.756Z,19.10
2017-08-31T04:36:29.265Z,18.90
2017-08-31T04:38:56.537Z,18.90
2017-08-31T04:41:24.103Z,18.90
2017-08-31T04:43:51.617Z,18.90
2017-08-31T04:46:19.121Z,18.90
2017-08-31T04:48:46.915Z,18.90
2017-08-31T04:51:15.196Z,18.80
2017-08-31T04:53:42.703Z,18.70
2017-08-31T04:56:10.275Z,18.80
2017-08-31T04:58:37.782Z,18.60
2017-08-31T05:01:05.298Z,18.60
2017-08-31T05:03:32.876Z,18.60
2017-08-31T05:06:00.420Z,18.60
2017-08-31T05:08:27.911Z,18.70
2017-08-31T05:10:55.702Z,18.70
2017-08-31T05:13:23.206Z,18.90
2017-08-31T05:15:50.713Z,19.00
2017-08-31T05:18:18.507Z,19.20
2017-08-31T05:20:46.015Z,19.20
2017-08-31T05:23:13.526Z,19.20
2017-08-31T05:25:41.415Z,19.20
2017-08-31T05:28:08.918Z,19.40
2017-08-31T05:30:36.427Z,19.60
2017-08-31T05:33:04.021Z,19.70
2017-08-31T05:35:31.540Z,19.70
2017-08-31T05:37:59.051Z,19.70
2017-08-31T05:40:26.608Z,19.80
2017-08-31T05:42:54.122Z,19.80
2017-08-31T05:45:21.623Z,19.80
2017-08-31T05:47:49.515Z,19.80
2017-08-31T05:50:17.018Z,19.90
2017-08-31T05:52:44.525Z,19.80
2017-08-31T05:55:12.092Z,19.70
2017-08-31T05:57:39.603Z,19.50
2017-08-31T06:00:07.114Z,19.40
2017-08-31T06:02:34.685Z,19.50
2017-08-31T06:05:02.203Z,19.40
2017-08-31T06:07:29.724Z,19.30
2017-08-31T06:09:57.280Z,19.20
2017-08-31T06:12:24.787Z,19.10
2017-08-31T06:14:52.294Z,18.90
2017-08-31T06:17:20.074Z,18.90
2017-08-31T06:19:47.586Z,18.90
2017-08-31T06:22:15.093Z,18.90
2017-08-31T06:24:42.643Z,18.80
2017-08-31T06:27:10.148Z,18.90
2017-08-31T06:29:37.663Z,19.00
2017-08-31T06:32:05.216Z,19.00
2017-08-31T06:34:32.723Z,19.00
2017-08-31T06:37:00.235Z,19.00
2017-08-31T06:39:27.787Z,19.10
2017-08-31T06:41:55.291Z,19.10
2017-08-31T06:44:22.791Z,19.20
2017-08-31T06:46:50.579Z,19.50
2017-08-31T06:49:18.087Z,19.80
2017-08-31T06:51:45.590Z,20.10
2017-08-31T06:54:13.143Z,20.30
2017-08-31T06:56:40.646Z,20.60
2017-08-31T06:59:08.149Z,20.80
2017-08-31T07:01:35.720Z,21.00
2017-08-31T07:04:03.227Z,21.10
2017-08-31T07:06:30.737Z,21.00
2017-08-31T07:08:58.287Z,20.90
2017-08-31T07:11:25.787Z,20.90
2017-08-31T07:13:53.291Z,20.70
2017-08-31T07:16:21.071Z,20.90
2017-08-31T07:18:48.583Z,21.00
2017-08-31T07:21:16.084Z,21.00
2017-08-31T07:23:43.643Z,21.10
2017-08-31T07:26:11.158Z,20.90
2017-08-31T07:28:38.659Z,20.50
2017-08-31T07:31:06.237Z,20.50
2017-08-31T07:33:33.743Z,20.40
2017-08-31T07:36:01.253Z,20.50
2017-08-31T07:38:28.815Z,20.90
2017-08-31T07:40:56.316Z,21.10
2017-08-31T07:43:24.625Z,21.30
2017-08-31T07:45:52.187Z,21.20
2017-08-31T07:48:19.679Z,21.20
2017-08-31T07:50:47.183Z,21.20
2017-08-31T07:53:14.981Z,21.30
2017-08-31T07:55:42.490Z,21.00
2017-08-31T07:58:09.998Z,21.10
2017-08-31T08:00:37.567Z,21.40
2017-08-31T08:03:05.095Z,21.60
2017-08-31T08:05:32.594Z,21.70
2017-08-31T08:08:00.136Z,21.70
2017-08-31T08:10:27.635Z,21.50
2017-08-31T08:12:55.137Z,21.80
2017-08-31T08:15:22.931Z,22.00
2017-08-31T08:17:50.448Z,22.20
2017-08-31T08:20:17.947Z,22.30
2017-08-31T08:22:45.499Z,22.30
2017-08-31T08:25:13.020Z,22.30
2017-08-31T08:27:40.514Z,21.90
2017-08-31T08:30:08.069Z,21.70
2017-08-31T08:32:35.578Z,21.50
2017-08-31T08:35:03.089Z,21.50
2017-08-31T08:37:31.495Z,21.50
2017-08-31T08:39:59.002Z,21.40
2017-08-31T08:42:26.511Z,21.20
2017-08-31T08:44:54.195Z,21.30
2017-08-31T08:47:21.691Z,21.20
2017-08-31T08:49:49.205Z,21.10
2017-08-31T08:52:17.027Z,21.10
2017-08-31T08:54:44.545Z,20.90
2017-08-31T08:57:12.056Z,21.10
2017-08-31T08:59:39.607Z,21.00
2017-08-31T09:02:07.111Z,20.60
2017-08-31T09:04:34.630Z,20.40
2017-08-31T09:07:02.180Z,20.30
2017-08-31T09:09:29.695Z,20.20
2017-08-31T09:11:57.203Z,20.30
2017-08-31T09:14:24.755Z,20.60
2017-08-31T09:16:52.258Z,20.90
2017-08-31T09:19:19.759Z,20.90
2017-08-31T09:21:47.639Z,21.00
2017-08-31T09:24:15.139Z,21.10
2017-08-31T09:26:42.638Z,20.80
2017-08-31T09:29:10.211Z,20.70
2017-08-31T09:31:37.711Z,20.70
2017-08-31T09:34:05.223Z,20.60
2017-08-31T09:36:33.111Z,20.50
2017-08-31T09:39:00.630Z,20.60
2017-08-31T09:41:28.159Z,20.80
2017-08-31T09:43:55.955Z,20.80
2017-08-31T09:46:23.219Z,20.60
2017-08-31T09:48:50.721Z,20.50
2017-08-31T09:51:18.278Z,19.90
2017-08-31T09:53:45.782Z,19.20
2017-08-31T09:56:13.288Z,18.90
2017-08-31T09:58:41.103Z,18.60
2017-08-31T10:01:08.600Z,18.30
2017-08-31T10:03:36.104Z,18.00
2017-08-31T10:06:03.660Z,17.80
2017-08-31T10:08:31.180Z,17.80
2017-08-31T10:10:58.678Z,17.80
2017-08-31T10:13:26.243Z,17.80
2017-08-31T10:15:53.764Z,17.80
2017-08-31T10:18:21.267Z,17.90
2017-08-31T10:20:48.815Z,17.90
2017-08-31T10:23:16.313Z,18.00
2017-08-31T10:25:43.814Z,18.00
2017-08-31T10:28:11.803Z,17.90
2017-08-31T10:30:39.301Z,17.80
2017-08-31T10:33:06.805Z,17.70
2017-08-31T10:35:34.670Z,17.70
2017-08-31T10:38:02.168Z,17.50
2017-08-31T10:40:29.671Z,17.50
2017-08-31T10:42:57.211Z,17.40
2017-08-31T10:45:24.715Z,17.30
2017-08-31T10:47:52.209Z,17.40
2017-08-31T10:50:20.007Z,17.30
2017-08-31T10:52:47.507Z,17.20
2017-08-31T10:55:15.011Z,17.20
2017-08-31T10:57:42.572Z,17.20
2017-08-31T11:00:10.079Z,17.10
2017-08-31T11:02:37.586Z,17.20
2017-08-31T11:05:05.502Z,17.30
2017-08-31T11:07:33.008Z,17.30
2017-08-31T11:10:00.510Z,17.50
2017-08-31T11:12:28.306Z,17.70
2017-08-31T11:14:55.806Z,17.90
2017-08-31T11:17:23.307Z,18.30
2017-08-31T11:19:50.842Z,18.40
2017-08-31T11:22:18.349Z,18.70
2017-08-31T11:24:45.855Z,18.50
2017-08-31T11:27:14.407Z,18.40
2017-08-31T11:29:42.052Z,18.10
2017-08-31T11:32:09.511Z,18.40
2017-08-31T11:34:37.041Z,18.70
2017-08-31T11:37:04.564Z,18.60
2017-08-31T11:39:32.038Z,18.80
2017-08-31T11:41:59.937Z,18.80
2017-08-31T11:44:27.439Z,18.80
2017-08-31T11:46:54.935Z,18.80
2017-08-31T11:49:22.251Z,19.10
2017-08-31T11:51:49.755Z,19.20
2017-08-31T11:54:17.256Z,19.30
2017-08-31T11:56:45.030Z,19.60
2017-08-31T11:59:12.535Z,19.50
2017-08-31T12:01:40.036Z,19.50
2017-08-31T12:04:07.919Z,19.50
2017-08-31T12:06:35.421Z,19.30
2017-08-31T12:09:02.922Z,19.40
2017-08-31T12:11:30.476Z,19.10
2017-08-31T12:13:57.978Z,18.80
2017-08-31T12:16:25.487Z,18.40
2017-08-31T12:18:53.287Z,18.10
2017-08-31T12:21:20.802Z,18.30
2017-08-31T12:23:48.295Z,18.20
2017-08-31T12:26:15.839Z,18.30
2017-08-31T12:28:43.335Z,18.60
2017-08-31T12:31:10.843Z,18.80
2017-08-31T12:33:38.399Z,19.00
2017-08-31T12:36:05.900Z,18.90
2017-08-31T12:38:33.474Z,18.60
2017-08-31T12:41:01.014Z,18.60
2017-08-31T12:43:28.514Z,18.30
2017-08-31T12:45:56.038Z,18.10
2017-08-31T12:48:23.611Z,17.90
2017-08-31T12:50:51.119Z,17.90
2017-08-31T12:53:18.618Z,18.00
2017-08-31T12:55:46.559Z,17.90
2017-08-31T12:58:14.067Z,17.80
2017-08-31T13:00:41.563Z,17.90
2017-08-31T13:03:09.112Z,17.80
2017-08-31T13:05:36.607Z,17.80
2017-08-31T13:08:04.107Z,17.90
2017-08-31T13:10:31.677Z,17.90
2017-08-31T13:12:59.172Z,17.70
2017-08-31T13:15:26.664Z,17.40
2017-08-31T13:17:54.571Z,17.20
2017-08-31T13:20:22.082Z,16.90
2017-08-31T13:22:49.583Z,16.80
2017-08-31T13:25:17.148Z,16.70
2017-08-31T13:27:44.642Z,16.50
2017-08-31T13:30:12.135Z,16.40
2017-08-31T13:32:39.806Z,16.30
2017-08-31T13:35:07.307Z,16.20
2017-08-31T13:37:34.810Z,16.20
2017-08-31T13:40:02.356Z,16.30
2017-08-31T13:42:29.861Z,16.30
2017-08-31T13:44:57.369Z,16.30
2017-08-31T13:47:24.926Z,16.40
2017-08-31T13:49:52.429Z,16.50
2017-08-31T13:52:19.927Z,16.50
2017-08-31T13:54:47.479Z,16.50
2017-08-31T13:57:14.983Z,16.50
2017-08-31T13:59:42.491Z,16.50
2017-08-31T14:02:10.043Z,16.40
2017-08-31T14:04:37.548Z,16.40
2017-08-31T14:07:05.052Z,16.40
2017-08-31T14:09:32.608Z,16.40
2017-08-31T14:12:00.127Z,16.50
2017-08-31T14:14:27.627Z,16.60
2017-08-31T14:16:55.179Z,16.70
2017-08-31T14:19:22.680Z,16.80
2017-08-31T14:21:50.196Z,17.00
2017-08-31T14:24:17.743Z,17.20
2017-08-31T14:26:45.243Z,17.20
2017-08-31T14:29:12.755Z,17.00
2017-08-31T14:31:40.328Z,16.90
2017-08-31T14:34:07.838Z,16.90
2017-08-31T14:36:35.341Z,16.80
2017-08-31T14:39:02.886Z,16.90
2017-08-31T14:41:30.383Z,17.00
2017-08-31T14:43:57.879Z,16.80
2017-08-31T14:46:25.430Z,16.80
2017-08-31T14:48:53.692Z,16.70
2017-08-31T14:51:21.195Z,16.70
2017-08-31T14:53:48.765Z,16.70
2017-08-31T14:56:16.265Z,16.60
2017-08-31T14:58:43.759Z,16.70
2017-08-31T15:01:11.310Z,16.70
2017-08-31T15:03:38.826Z,16.70
2017-08-31T15:06:06.328Z,16.80
2017-08-31T15:08:33.881Z,16.90
2017-08-31T15:11:01.395Z,16.90
2017-08-31T15:13:28.904Z,16.80
2017-08-31T15:15:56.495Z,16.70
2017-08-31T15:18:23.987Z,16.50
2017-08-31T15:20:51.515Z,16.50
2017-08-31T15:23:19.066Z,16.40
2017-08-31T15:25:46.563Z,16.30
2017-08-31T15:28:14.067Z,16.20
2017-08-31T15:30:41.611Z,16.00
2017-08-31T15:33:09.131Z,15.90
2017-08-31T15:35:36.639Z,15.80
2017-08-31T15:38:04.210Z,15.70
2017-08-31T15:40:31.706Z,15.70
2017-08-31T15:42:59.203Z,15.70
2017-08-31T15:45:26.759Z,15.80
2017-08-31T15:47:54.266Z,15.90
2017-08-31T15:50:21.818Z,15.80
2017-08-31T15:52:49.379Z,15.80
2017-08-31T15:55:17.891Z,15.60
2017-08-31T15:57:45.394Z,15.60
2017-08-31T16:00:13.084Z,15.50
2017-08-31T16:02:40.584Z,15.40
2017-08-31T16:05:08.094Z,15.40
2017-08-31T16:07:35.646Z,15.30
2017-08-31T16:10:03.142Z,15.20
2017-08-31T16:12:30.639Z,15.20
2017-08-31T16:14:58.219Z,15.20
2017-08-31T16:17:25.736Z,15.10
2017-08-31T16:19:53.230Z,15.10
2017-08-31T16:22:20.768Z,15.20
2017-08-31T16:24:48.263Z,15.20
2017-08-31T16:27:15.779Z,15.30
2017-08-31T16:29:43.352Z,15.30
2017-08-31T16:32:10.868Z,15.50
2017-08-31T16:34:38.372Z,15.50
2017-08-31T16:37:06.151Z,15.50
2017-08-31T16:39:33.652Z,15.70
2017-08-31T16:42:01.146Z,15.80
2017-08-31T16:44:29.040Z,15.80
2017-08-31T16:46:56.548Z,15.60
2017-08-31T16:49:24.072Z,15.60
2017-08-31T16:51:51.639Z,15.40
2017-08-31T16:54:19.138Z,15.40
2017-08-31T16:56:46.634Z,15.30
2017-08-31T16:59:14.193Z,15.30
2017-08-31T17:01:41.707Z,15.20
2017-08-31T17:04:09.211Z,15.20
2017-08-31T17:06:36.767Z,15.20
2017-08-31T17:09:04.271Z,15.30
2017-08-31T17:11:31.770Z,15.30
2017-08-31T17:13:59.565Z,15.40
2017-08-31T17:16:27.062Z,15.40
2017-08-31T17:18:54.593Z,15.30
2017-08-31T17:21:22.134Z,15.40
2017-08-31T17:23:49.635Z,15.30
2017-08-31T17:26:17.140Z,15.40
2017-08-31T17:28:44.690Z,15.40
2017-08-31T17:31:12.203Z,15.40
2017-08-31T17:33:39.727Z,15.40
2017-08-31T17:36:07.294Z,15.60
2017-08-31T17:38:34.801Z,15.70
2017-08-31T17:41:02.319Z,15.60
2017-08-31T17:43:29.867Z,15.70
2017-08-31T17:45:57.407Z,15.70
2017-08-31T17:48:24.902Z,15.60
2017-08-31T17:50:52.674Z,15.60
2017-08-31T17:53:20.170Z,15.40
2017-08-31T17:55:47.699Z,15.30
2017-08-31T17:58:15.252Z,15.20
2017-08-31T18:00:42.768Z,15.10
2017-08-31T18:03:10.271Z,15.10
2017-08-31T18:05:37.827Z,15.00
2017-08-31T18:08:05.324Z,15.00
2017-08-31T18:10:32.908Z,14.90
2017-08-31T18:13:00.786Z,14.80
2017-08-31T18:15:28.306Z,14.70
2017-08-31T18:17:55.803Z,14.70
2017-08-31T18:20:23.731Z,14.70
2017-08-31T18:22:51.246Z,14.70
2017-08-31T18:25:18.747Z,14.70
2017-08-31T18:27:46.287Z,14.80
2017-08-31T18:30:13.790Z,14.80
2017-08-31T18:32:41.295Z,14.80
2017-08-31T18:35:08.854Z,14.90
2017-08-31T18:37:36.369Z,15.00
2017-08-31T18:40:03.874Z,14.90
2017-08-31T18:42:31.411Z,14.90
2017-08-31T18:44:58.907Z,14.90
2017-08-31T18:47:26.403Z,14.80
2017-08-31T18:49:53.960Z,14.80
2017-08-31T18:52:22.222Z,14.80
2017-08-31T18:54:49.732Z,14.80
2017-08-31T18:57:17.523Z,14.80
2017-08-31T18:59:45.107Z,14.90
2017-08-31T19:02:12.602Z,14.90
2017-08-31T19:04:40.165Z,14.90
2017-08-31T19:07:07.675Z,14.90
2017-08-31T19:09:35.179Z,14.90
2017-08-31T19:12:02.823Z,14.90
2017-08-31T19:14:30.324Z,14.90
2017-08-31T19:16:57.831Z,14.90
2017-08-31T19:19:25.387Z,14.90
2017-08-31T19:21:52.885Z,14.90
2017-08-31T19:24:20.387Z,14.90
2017-08-31T19:26:48.258Z,14.90
2017-08-31T19:29:15.759Z,14.90
2017-08-31T19:31:43.263Z,14.80
2017-08-31T19:34:11.158Z,14.80
2017-08-31T19:36:38.667Z,14.90
2017-08-31T19:39:06.170Z,14.80
2017-08-31T19:41:33.715Z,14.80
2017-08-31T19:44:01.214Z,14.70
2017-08-31T19:46:28.712Z,14.70
2017-08-31T19:48:56.282Z,14.70
2017-08-31T19:51:23.883Z,14.80
2017-08-31T19:53:52.153Z,14.80
2017-08-31T19:56:19.938Z,14.90
2017-08-31T19:58:47.441Z,14.80
2017-08-31T20:01:14.980Z,14.80
2017-08-31T20:03:42.542Z,14.70
2017-08-31T20:06:10.035Z,14.70
2017-08-31T20:08:37.532Z,14.60
2017-08-31T20:11:05.331Z,14.50
2017-08-31T20:13:32.832Z,14.50
2017-08-31T20:16:00.332Z,14.50
2017-08-31T20:18:27.886Z,14.40
2017-08-31T20:20:55.387Z,14.40
2017-08-31T20:23:22.884Z,14.40
2017-08-31T20:25:50.728Z,14.40
2017-08-31T20:28:18.235Z,14.40
2017-08-31T20:30:45.731Z,14.40
2017-08-31T20:33:13.600Z,14.40
2017-08-31T20:35:41.103Z,14.40
2017-08-31T20:38:08.619Z,14.40
2017-08-31T20:40:36.186Z,14.40
2017-08-31T20:43:03.695Z,14.40
2017-08-31T20:45:31.215Z,14.40
2017-08-31T20:47:58.790Z,14.40
2017-08-31T20:50:26.292Z,14.50
2017-08-31T20:52:53.815Z,14.50
2017-08-31T20:55:21.678Z,14.50
2017-08-31T20:57:49.197Z,14.40
2017-08-31T21:00:16.707Z,14.40
2017-08-31T21:02:44.251Z,14.50
2017-08-31T21:05:11.750Z,14.50
2017-08-31T21:07:39.256Z,14.40
2017-08-31T21:10:07.159Z,14.40
2017-08-31T21:12:34.658Z,14.40
2017-08-31T21:15:02.151Z,14.50
2017-08-31T21:17:29.694Z,14.60
2017-08-31T21:19:57.192Z,14.50
2017-08-31T21:22:24.689Z,14.40
2017-08-31T21:24:52.243Z,14.40
2017-08-31T21:27:19.741Z,14.40
2017-08-31T21:29:47.246Z,14.40
2017-08-31T21:32:15.052Z,14.30
2017-08-31T21:34:42.760Z,14.30
2017-08-31T21:37:10.335Z,14.20
2017-08-31T21:39:37.919Z,14.30
2017-08-31T21:42:05.415Z,14.20
2017-08-31T21:44:32.921Z,14.20
2017-08-31T21:47:00.484Z,14.10
2017-08-31T21:49:27.987Z,14.20
2017-08-31T21:51:55.491Z,14.20
2017-08-31T21:54:23.042Z,14.20
2017-08-31T21:56:50.544Z,14.10
2017-08-31T21:59:18.046Z,14.20
2017-08-31T22:01:45.844Z,14.30
2017-08-31T22:04:13.344Z,14.30
2017-08-31T22:06:40.864Z,14.30
2017-08-31T22:09:08.767Z,14.30
2017-08-31T22:11:36.263Z,14.20
2017-08-31T22:14:03.771Z,14.20
2017-08-31T22:16:31.328Z,14.20
2017-08-31T22:18:58.841Z,14.10
2017-08-31T22:21:26.357Z,14.10
2017-08-31T22:23:54.247Z,14.00
2017-08-31T22:26:22.520Z,14.00
2017-08-31T22:28:50.015Z,14.00
2017-08-31T22:31:17.666Z,14.00
2017-08-31T22:33:45.162Z,14.00
2017-08-31T22:36:12.699Z,14.00
2017-08-31T22:38:40.250Z,14.00
2017-08-31T22:41:07.751Z,14.00
2017-08-31T22:43:35.257Z,14.10
2017-08-31T22:46:02.806Z,14.10
2017-08-31T22:48:30.335Z,14.00
2017-08-31T22:50:57.843Z,14.00
2017-08-31T22:53:25.397Z,14.00
2017-08-31T22:55:52.898Z,14.00
2017-08-31T22:58:20.413Z,14.00
2017-08-31T23:00:47.975Z,14.00
2017-08-31T23:03:15.484Z,14.10
2017-08-31T23:05:42.996Z,14.10
2017-08-31T23:08:10.831Z,14.10
2017-08-31T23:10:38.342Z,14.10
2017-08-31T23:13:05.842Z,14.00
2017-08-31T23:15:33.407Z,13.90
2017-08-31T23:18:00.919Z,13.90
2017-08-31T23:20:28.456Z,13.80
2017-08-31T23:22:56.227Z,13.80
2017-08-31T23:25:23.730Z,13.80
2017-08-31T23:27:51.239Z,13.80
2017-08-31T23:30:19.139Z,13.80
2017-08-31T23:32:46.651Z,13.80
2017-08-31T23:35:14.152Z,13.70
2017-08-31T23:37:42.041Z,13.60
2017-08-31T23:40:09.615Z,13.60
2017-08-31T23:42:37.134Z,13.60
2017-08-31T23:45:04.940Z,13.60
2017-08-31T23:47:32.452Z,13.60
2017-08-31T23:49:59.982Z,13.60
2017-08-31T23:52:27.527Z,13.60
2017-08-31T23:54:55.042Z,13.60
2017-08-31T23:57:22.549Z,13.50
2017-08-31T23:59:50.098Z,13.50
